Time;durP1;ratioP1;P1;durP2;ratioP2;P2;SDS_P1;SDS_P2;PMS_P1;PMS_P2;Temp;Humidity;BMP_temperature;BMP_pressure;BME280_temperature;BME280_humidity;BME280_pressure;Samples;Min_cycle;Max_cycle;Signal;HPM_P1;HPM_P2
2021/09/18 00:00:14;;;;;;;6.10;5.27;;;;;;;;;;5066757;28;20449;-71
2021/09/18 00:02:41;;;;;;;6.17;5.40;;;;;;;;;;5067235;28;20453;-71
2021/09/18 00:05:09;;;;;;;6.50;4.60;;;;;;;;;;5067016;28;20557;-72
2021/09/18 00:07:38;;;;;;;8.53;5.50;;;;;;;;;;5066647;28;20512;-70
2021/09/18 00:10:06;;;;;;;7.23;5.70;;;;;;;;;;5066821;28;20453;-72
2021/09/18 00:12:33;;;;;;;6.40;5.70;;;;;;;;;;5066962;28;20473;-72
2021/09/18 00:15:01;;;;;;;7.37;6.10;;;;;;;;;;5067464;28;20477;-71
2021/09/18 00:17:28;;;;;;;8.20;6.37;;;;;;;;;;5065779;28;20441;-72
2021/09/18 00:19:55;;;;;;;5.80;5.30;;;;;;;;;;5067123;28;20541;-71
2021/09/18 00:22:23;;;;;;;14.10;7.40;;;;;;;;;;5065751;28;20445;-70
2021/09/18 00:24:51;;;;;;;8.70;5.93;;;;;;;;;;5066707;28;20564;-71
2021/09/18 00:27:18;;;;;;;6.20;5.60;;;;;;;;;;5066748;28;20452;-71
2021/09/18 00:29:45;;;;;;;5.60;5.07;;;;;;;;;;5066301;28;20873;-71
2021/09/18 00:32:12;;;;;;;6.70;6.10;;;;;;;;;;5067435;28;20934;-71
2021/09/18 00:34:40;;;;;;;6.27;5.67;;;;;;;;;;5066314;28;20452;-71
2021/09/18 00:37:07;;;;;;;8.37;5.83;;;;;;;;;;5066976;28;20552;-71
2021/09/18 00:39:34;;;;;;;12.63;6.23;;;;;;;;;;5065920;28;20483;-71
2021/09/18 00:42:03;;;;;;;6.50;5.90;;;;;;;;;;5066974;28;20536;-71
2021/09/18 00:44:30;;;;;;;6.83;5.97;;;;;;;;;;5067064;28;20545;-71
2021/09/18 00:46:58;;;;;;;6.87;6.27;;;;;;;;;;5061403;28;20544;-72
2021/09/18 00:49:25;;;;;;;5.97;5.20;;;;;;;;;;5066855;28;20948;-74
2021/09/18 00:51:52;;;;;;;11.63;5.90;;;;;;;;;;5066570;28;20452;-73
2021/09/18 00:54:19;;;;;;;10.10;7.63;;;;;;;;;;5067026;28;20460;-73
2021/09/18 00:56:47;;;;;;;6.10;5.50;;;;;;;;;;5066179;28;21141;-73
2021/09/18 00:59:15;;;;;;;7.10;5.67;;;;;;;;;;5067024;28;20547;-73
2021/09/18 01:01:42;;;;;;;6.93;5.83;;;;;;;;;;5066319;28;20933;-74
2021/09/18 01:04:10;;;;;;;6.83;6.17;;;;;;;;;;5066125;28;20481;-73
2021/09/18 01:06:37;;;;;;;7.83;6.07;;;;;;;;;;5067523;28;20851;-73
2021/09/18 01:09:04;;;;;;;6.17;5.60;;;;;;;;;;5070091;28;20540;-73
2021/09/18 01:11:31;;;;;;;6.80;5.80;;;;;;;;;;5070295;28;20545;-73
2021/09/18 01:13:58;;;;;;;6.00;5.40;;;;;;;;;;5070895;28;20574;-73
2021/09/18 01:16:27;;;;;;;7.20;6.50;;;;;;;;;;5070271;28;20487;-72
2021/09/18 01:18:54;;;;;;;11.00;7.37;;;;;;;;;;5070247;28;20538;-73
2021/09/18 01:21:21;;;;;;;6.63;5.90;;;;;;;;;;5056734;28;20453;-76
2021/09/18 01:23:50;;;;;;;7.17;6.43;;;;;;;;;;5070284;28;20685;-72
2021/09/18 01:26:17;;;;;;;11.33;5.80;;;;;;;;;;5072082;28;20453;-74
2021/09/18 01:28:46;;;;;;;7.33;6.13;;;;;;;;;;5071587;28;20536;-73
2021/09/18 01:31:14;;;;;;;6.83;6.10;;;;;;;;;;5087812;28;20460;-74
2021/09/18 01:33:41;;;;;;;9.60;8.33;;;;;;;;;;5082450;28;20969;-69
2021/09/18 01:36:08;;;;;;;7.20;6.50;;;;;;;;;;5071803;28;20460;-69
2021/09/18 01:38:35;;;;;;;7.50;6.70;;;;;;;;;;5069490;28;21008;-69
2021/09/18 01:41:04;;;;;;;6.60;6.00;;;;;;;;;;5069191;28;20933;-72
2021/09/18 01:43:31;;;;;;;7.27;5.83;;;;;;;;;;5069035;28;20472;-70
2021/09/18 01:45:58;;;;;;;8.27;6.37;;;;;;;;;;5069706;28;20461;-69
2021/09/18 01:48:26;;;;;;;6.97;6.33;;;;;;;;;;5069369;28;20457;-69
2021/09/18 01:50:56;;;;;;;6.47;5.87;;;;;;;;;;5069473;28;20465;-69
2021/09/18 01:53:24;;;;;;;7.63;6.20;;;;;;;;;;5069230;28;20473;-69
2021/09/18 01:55:52;;;;;;;6.03;5.40;;;;;;;;;;5069280;28;21142;-69
2021/09/18 01:58:21;;;;;;;8.90;6.47;;;;;;;;;;5069618;28;20476;-68
2021/09/18 02:00:49;;;;;;;7.80;5.93;;;;;;;;;;5068530;28;20893;-69
2021/09/18 02:03:16;;;;;;;7.90;6.37;;;;;;;;;;5068740;28;20449;-70
2021/09/18 02:05:44;;;;;;;6.47;5.80;;;;;;;;;;5067830;28;20441;-69
2021/09/18 02:08:11;;;;;;;9.13;6.50;;;;;;;;;;5069402;28;20464;-69
2021/09/18 02:10:39;;;;;;;6.93;6.17;;;;;;;;;;5068566;28;20452;-70
2021/09/18 02:13:07;;;;;;;7.70;6.63;;;;;;;;;;5068617;28;21297;-70
2021/09/18 02:15:36;;;;;;;7.13;6.13;;;;;;;;;;5068695;28;20637;-69
2021/09/18 02:18:03;;;;;;;6.43;5.83;;;;;;;;;;5067695;28;20977;-70
2021/09/18 02:20:31;;;;;;;7.73;6.73;;;;;;;;;;5066919;28;20453;-73
2021/09/18 02:22:58;;;;;;;7.13;6.00;;;;;;;;;;5068866;28;20824;-70
2021/09/18 02:25:27;;;;;;;5.70;5.20;;;;;;;;;;5069426;28;20461;-71
2021/09/18 02:27:54;;;;;;;6.80;6.10;;;;;;;;;;5069430;28;20824;-70
2021/09/18 02:30:23;;;;;;;9.53;6.50;;;;;;;;;;5068683;28;20448;-70
2021/09/18 02:32:52;;;;;;;6.63;5.50;;;;;;;;;;5068870;28;20507;-71
2021/09/18 02:35:20;;;;;;;7.00;5.50;;;;;;;;;;5069300;28;20445;-70
2021/09/18 02:37:48;;;;;;;7.10;5.97;;;;;;;;;;5069058;28;20930;-71
2021/09/18 02:40:16;;;;;;;8.00;6.77;;;;;;;;;;5079975;28;20843;-70
2021/09/18 02:42:45;;;;;;;8.50;6.47;;;;;;;;;;5068473;28;20446;-70
2021/09/18 02:45:12;;;;;;;8.50;6.80;;;;;;;;;;5070842;28;20449;-70
2021/09/18 02:47:39;;;;;;;7.20;6.40;;;;;;;;;;5068441;28;20528;-70
2021/09/18 02:50:09;;;;;;;7.90;6.70;;;;;;;;;;5068088;28;20936;-71
2021/09/18 02:52:36;;;;;;;7.83;6.90;;;;;;;;;;5068291;28;20452;-71
2021/09/18 02:55:04;;;;;;;8.90;7.27;;;;;;;;;;5068308;28;21237;-70
2021/09/18 02:57:31;;;;;;;9.17;7.47;;;;;;;;;;5067901;28;20441;-71
2021/09/18 02:59:58;;;;;;;8.80;6.40;;;;;;;;;;5068157;28;20485;-71
2021/09/18 03:02:25;;;;;;;13.63;7.97;;;;;;;;;;5068810;28;20463;-70
2021/09/18 03:04:52;;;;;;;6.57;5.90;;;;;;;;;;5067807;28;20988;-70
2021/09/18 03:07:21;;;;;;;10.17;6.40;;;;;;;;;;5068456;28;20485;-70
2021/09/18 03:09:48;;;;;;;10.23;7.50;;;;;;;;;;5067103;28;20446;-70
2021/09/18 03:12:15;;;;;;;8.60;6.23;;;;;;;;;;5068288;28;20457;-70
2021/09/18 03:14:43;;;;;;;8.40;7.13;;;;;;;;;;5067163;28;20453;-71
2021/09/18 03:17:10;;;;;;;6.97;6.27;;;;;;;;;;5068081;28;20530;-70
2021/09/18 03:19:37;;;;;;;9.53;6.77;;;;;;;;;;5067087;28;20477;-70
2021/09/18 03:22:04;;;;;;;8.60;7.17;;;;;;;;;;5067206;28;20540;-70
2021/09/18 03:24:33;;;;;;;8.00;7.20;;;;;;;;;;5066950;28;20453;-72
2021/09/18 03:27:00;;;;;;;8.27;6.60;;;;;;;;;;5068383;28;20476;-70
2021/09/18 03:29:27;;;;;;;7.47;6.43;;;;;;;;;;5066595;28;20874;-71
2021/09/18 03:31:55;;;;;;;8.17;6.60;;;;;;;;;;5068276;28;20468;-69
2021/09/18 03:34:22;;;;;;;9.20;6.30;;;;;;;;;;5067607;28;20591;-69
2021/09/18 03:36:49;;;;;;;7.67;6.20;;;;;;;;;;5066960;28;20540;-68
2021/09/18 03:39:16;;;;;;;9.13;6.40;;;;;;;;;;5067131;28;20485;-68
2021/09/18 03:41:45;;;;;;;8.57;6.80;;;;;;;;;;5066986;28;20532;-68
2021/09/18 03:44:12;;;;;;;10.77;7.83;;;;;;;;;;5067617;28;20536;-68
2021/09/18 03:46:39;;;;;;;8.30;6.77;;;;;;;;;;5067217;28;20553;-70
2021/09/18 03:49:06;;;;;;;12.53;6.63;;;;;;;;;;5066996;28;20457;-67
2021/09/18 03:51:34;;;;;;;8.77;6.33;;;;;;;;;;5067545;28;20531;-68
2021/09/18 03:54:01;;;;;;;8.40;6.60;;;;;;;;;;5067141;28;20555;-67
2021/09/18 03:56:28;;;;;;;7.00;6.27;;;;;;;;;;5067005;28;20450;-68
2021/09/18 03:58:56;;;;;;;9.27;6.10;;;;;;;;;;5066469;28;20830;-68
2021/09/18 04:01:24;;;;;;;7.37;5.90;;;;;;;;;;5065491;28;20548;-68
2021/09/18 04:03:51;;;;;;;8.73;6.40;;;;;;;;;;5065974;28;20441;-67
2021/09/18 04:06:18;;;;;;;6.67;5.97;;;;;;;;;;5066845;28;20495;-68
2021/09/18 04:08:45;;;;;;;10.83;9.20;;;;;;;;;;5065424;28;20529;-70
2021/09/18 04:11:13;;;;;;;11.00;5.43;;;;;;;;;;5066773;28;20458;-70
2021/09/18 04:13:40;;;;;;;6.73;5.97;;;;;;;;;;5067234;28;20537;-70
2021/09/18 04:16:08;;;;;;;8.63;6.30;;;;;;;;;;5067574;28;20854;-71
2021/09/18 04:18:36;;;;;;;7.37;6.50;;;;;;;;;;5066242;28;20521;-71
2021/09/18 04:21:03;;;;;;;6.80;5.90;;;;;;;;;;5065685;28;20459;-71
2021/09/18 04:23:32;;;;;;;7.43;5.47;;;;;;;;;;5066564;28;20507;-71
2021/09/18 04:26:00;;;;;;;7.70;6.80;;;;;;;;;;5067095;28;20872;-70
2021/09/18 04:28:27;;;;;;;7.67;6.73;;;;;;;;;;5066688;28;20452;-73
2021/09/18 04:30:54;;;;;;;8.00;6.70;;;;;;;;;;5067046;28;20460;-71
2021/09/18 04:33:23;;;;;;;7.40;5.90;;;;;;;;;;5068072;28;20449;-71
2021/09/18 04:35:50;;;;;;;9.07;5.90;;;;;;;;;;5066643;28;20451;-71
2021/09/18 04:38:18;;;;;;;9.13;7.40;;;;;;;;;;5066909;28;20485;-71
2021/09/18 04:40:45;;;;;;;7.07;5.93;;;;;;;;;;5068017;28;21318;-71
2021/09/18 04:43:12;;;;;;;7.20;6.17;;;;;;;;;;5071711;28;20453;-71
2021/09/18 04:45:39;;;;;;;6.87;6.13;;;;;;;;;;5070627;28;20753;-71
2021/09/18 04:48:07;;;;;;;7.70;6.30;;;;;;;;;;5071215;28;20477;-72
2021/09/18 04:50:35;;;;;;;7.50;6.23;;;;;;;;;;5070452;28;20485;-72
2021/09/18 04:53:02;;;;;;;11.20;7.30;;;;;;;;;;5071003;28;20457;-71
2021/09/18 04:55:30;;;;;;;6.80;6.10;;;;;;;;;;5070342;28;20810;-71
2021/09/18 04:57:57;;;;;;;9.20;7.23;;;;;;;;;;5071490;28;21003;-70
2021/09/18 05:00:24;;;;;;;8.33;6.73;;;;;;;;;;5070663;28;20477;-71
2021/09/18 05:02:51;;;;;;;10.33;7.87;;;;;;;;;;5074619;28;20445;-71
2021/09/18 05:05:18;;;;;;;9.20;6.97;;;;;;;;;;5082378;28;20473;-71
2021/09/18 05:07:47;;;;;;;7.40;6.33;;;;;;;;;;5076381;28;20492;-70
2021/09/18 05:10:14;;;;;;;11.20;7.30;;;;;;;;;;5071412;28;20577;-70
2021/09/18 05:12:41;;;;;;;9.20;7.30;;;;;;;;;;5070657;28;20460;-70
2021/09/18 05:15:09;;;;;;;10.00;7.10;;;;;;;;;;5070617;28;20540;-70
2021/09/18 05:17:36;;;;;;;7.77;6.27;;;;;;;;;;5069503;28;20463;-71
2021/09/18 05:20:04;;;;;;;10.73;7.70;;;;;;;;;;5069580;28;20601;-71
2021/09/18 05:22:31;;;;;;;7.07;6.37;;;;;;;;;;5068888;28;20450;-71
2021/09/18 05:24:59;;;;;;;9.23;7.93;;;;;;;;;;5069754;28;20540;-69
2021/09/18 05:27:27;;;;;;;8.40;6.70;;;;;;;;;;5070031;28;20950;-72
2021/09/18 05:29:54;;;;;;;7.97;6.50;;;;;;;;;;5069676;28;20551;-70
2021/09/18 05:32:21;;;;;;;8.10;7.27;;;;;;;;;;5070292;28;20532;-71
2021/09/18 05:34:48;;;;;;;7.80;6.77;;;;;;;;;;5069504;28;20444;-71
2021/09/18 05:37:15;;;;;;;12.70;6.13;;;;;;;;;;5070149;28;20492;-71
2021/09/18 05:39:42;;;;;;;7.40;6.40;;;;;;;;;;5068493;28;20919;-71
2021/09/18 05:42:11;;;;;;;9.70;7.60;;;;;;;;;;5069632;28;20450;-71
2021/09/18 05:44:38;;;;;;;8.50;6.60;;;;;;;;;;5069587;28;20446;-71
2021/09/18 05:47:05;;;;;;;8.40;6.80;;;;;;;;;;5070115;28;20464;-70
2021/09/18 05:49:32;;;;;;;8.67;6.40;;;;;;;;;;5068856;28;20461;-70
2021/09/18 05:52:00;;;;;;;7.67;6.73;;;;;;;;;;5069068;28;20453;-71
2021/09/18 05:54:28;;;;;;;9.63;5.97;;;;;;;;;;5069732;28;20503;-72
2021/09/18 05:56:55;;;;;;;8.97;6.13;;;;;;;;;;5069788;28;20459;-70
2021/09/18 05:59:24;;;;;;;9.70;6.53;;;;;;;;;;5070794;28;20481;-72
2021/09/18 06:01:51;;;;;;;10.57;7.47;;;;;;;;;;5069600;28;20458;-70
2021/09/18 06:04:18;;;;;;;8.07;6.83;;;;;;;;;;5069623;28;20820;-69
2021/09/18 06:06:45;;;;;;;11.23;9.70;;;;;;;;;;5068178;28;20546;-68
2021/09/18 06:09:12;;;;;;;9.73;8.33;;;;;;;;;;5068408;28;20544;-72
2021/09/18 06:11:40;;;;;;;10.97;7.77;;;;;;;;;;5064964;28;20461;-70
2021/09/18 06:14:07;;;;;;;9.50;7.17;;;;;;;;;;5071056;28;20537;-70
2021/09/18 06:16:35;;;;;;;8.30;6.57;;;;;;;;;;5071323;28;20448;-69
2021/09/18 06:19:02;;;;;;;10.23;6.73;;;;;;;;;;5070968;28;20453;-70
2021/09/18 06:21:29;;;;;;;8.93;6.80;;;;;;;;;;5070583;28;20485;-72
2021/09/18 06:23:57;;;;;;;9.40;7.53;;;;;;;;;;5071221;28;20461;-70
2021/09/18 06:26:24;;;;;;;9.30;7.27;;;;;;;;;;5070952;28;20546;-69
2021/09/18 06:28:51;;;;;;;10.53;8.07;;;;;;;;;;5069218;28;20474;-69
2021/09/18 06:31:18;;;;;;;9.00;7.97;;;;;;;;;;5070545;28;20541;-70
2021/09/18 06:33:47;;;;;;;11.27;9.30;;;;;;;;;;5070689;28;20460;-70
2021/09/18 06:36:14;;;;;;;10.30;8.13;;;;;;;;;;5069723;28;20457;-70
2021/09/18 06:38:41;;;;;;;12.03;8.43;;;;;;;;;;5069960;28;20540;-70
2021/09/18 06:41:08;;;;;;;10.20;8.80;;;;;;;;;;5070583;28;20483;-70
2021/09/18 06:43:36;;;;;;;11.33;8.73;;;;;;;;;;5070327;28;20456;-70
2021/09/18 06:46:03;;;;;;;9.33;8.40;;;;;;;;;;5064233;28;20462;-71
2021/09/18 06:48:30;;;;;;;11.90;9.83;;;;;;;;;;5066244;28;20536;-71
2021/09/18 06:50:59;;;;;;;11.30;8.70;;;;;;;;;;5070955;28;20532;-71
2021/09/18 06:53:26;;;;;;;11.13;9.33;;;;;;;;;;5069951;28;20456;-70
2021/09/18 06:55:53;;;;;;;10.63;8.80;;;;;;;;;;5071222;28;20449;-70
2021/09/18 06:58:20;;;;;;;15.10;9.80;;;;;;;;;;5069677;28;20604;-70
2021/09/18 07:00:47;;;;;;;13.13;10.73;;;;;;;;;;5069775;28;20592;-70
2021/09/18 07:03:15;;;;;;;12.90;9.87;;;;;;;;;;5070414;28;20437;-70
2021/09/18 07:05:42;;;;;;;10.20;9.20;;;;;;;;;;5069297;28;20452;-72
2021/09/18 07:08:10;;;;;;;13.50;10.27;;;;;;;;;;5070269;28;20475;-71
2021/09/18 07:10:37;;;;;;;12.20;10.00;;;;;;;;;;5069626;28;20469;-70
2021/09/18 07:13:05;;;;;;;10.40;9.30;;;;;;;;;;5070032;28;20487;-70
2021/09/18 07:15:32;;;;;;;9.87;8.87;;;;;;;;;;5070374;28;20449;-70
2021/09/18 07:17:59;;;;;;;11.00;9.90;;;;;;;;;;5070642;28;20531;-70
2021/09/18 07:20:26;;;;;;;13.13;9.93;;;;;;;;;;5069627;28;20484;-70
2021/09/18 07:22:53;;;;;;;12.57;9.77;;;;;;;;;;5070305;28;20453;-70
2021/09/18 07:25:23;;;;;;;12.50;10.43;;;;;;;;;;5070330;28;20585;-70
2021/09/18 07:27:50;;;;;;;11.50;10.20;;;;;;;;;;5069160;28;20854;-70
2021/09/18 07:30:17;;;;;;;11.50;9.80;;;;;;;;;;5069666;28;20457;-70
2021/09/18 07:32:45;;;;;;;11.97;10.47;;;;;;;;;;5069405;28;20445;-70
2021/09/18 07:35:12;;;;;;;10.73;9.63;;;;;;;;;;5069540;28;20540;-70
2021/09/18 07:37:40;;;;;;;12.70;9.63;;;;;;;;;;5069049;28;20975;-70
2021/09/18 07:40:08;;;;;;;10.90;9.60;;;;;;;;;;5069803;28;20485;-70
2021/09/18 07:42:37;;;;;;;11.33;10.23;;;;;;;;;;5069613;28;20525;-70
2021/09/18 07:45:04;;;;;;;10.40;8.50;;;;;;;;;;5069767;28;20456;-70
2021/09/18 07:47:32;;;;;;;11.93;10.57;;;;;;;;;;5058535;28;20540;-70
2021/09/18 07:49:59;;;;;;;11.53;10.33;;;;;;;;;;5069383;28;20450;-70
2021/09/18 07:52:26;;;;;;;10.60;8.93;;;;;;;;;;5069602;28;20445;-71
2021/09/18 07:54:54;;;;;;;12.40;9.90;;;;;;;;;;5069342;28;21048;-70
2021/09/18 07:57:21;;;;;;;10.27;9.27;;;;;;;;;;5069565;28;20945;-70
2021/09/18 07:59:50;;;;;;;14.27;9.30;;;;;;;;;;5068644;28;20437;-70
2021/09/18 08:02:17;;;;;;;10.03;9.03;;;;;;;;;;5069093;28;20896;-70
2021/09/18 08:04:44;;;;;;;11.93;8.30;;;;;;;;;;5067968;28;21003;-71
2021/09/18 08:07:11;;;;;;;13.17;8.70;;;;;;;;;;5057583;28;20481;-70
2021/09/18 08:09:38;;;;;;;9.53;8.57;;;;;;;;;;5068259;28;20460;-70
2021/09/18 08:12:06;;;;;;;9.53;8.53;;;;;;;;;;5067188;28;20453;-70
2021/09/18 08:14:33;;;;;;;10.03;8.70;;;;;;;;;;5068638;28;20536;-70
2021/09/18 08:17:02;;;;;;;9.03;8.13;;;;;;;;;;5068930;28;20964;-71
2021/09/18 08:19:29;;;;;;;9.57;8.57;;;;;;;;;;5069228;28;20536;-72
2021/09/18 08:21:56;;;;;;;11.93;8.70;;;;;;;;;;5069551;28;20477;-70
2021/09/18 08:24:23;;;;;;;9.60;7.90;;;;;;;;;;5069281;28;20456;-70
2021/09/18 08:26:50;;;;;;;12.53;7.70;;;;;;;;;;5067940;28;20977;-70
2021/09/18 08:29:17;;;;;;;9.37;8.47;;;;;;;;;;5069122;28;20963;-70
2021/09/18 08:31:44;;;;;;;9.33;8.43;;;;;;;;;;5069471;28;20510;-71
2021/09/18 08:34:13;;;;;;;11.80;8.20;;;;;;;;;;5070739;28;20529;-69
2021/09/18 08:36:40;;;;;;;9.50;8.50;;;;;;;;;;5079973;28;20484;-70
2021/09/18 08:39:07;;;;;;;8.80;7.90;;;;;;;;;;5076956;28;20477;-70
2021/09/18 08:41:35;;;;;;;9.57;8.57;;;;;;;;;;5074215;28;20480;-70
2021/09/18 08:44:02;;;;;;;10.23;7.40;;;;;;;;;;5068954;28;20453;-71
2021/09/18 08:46:30;;;;;;;11.03;8.50;;;;;;;;;;5064598;28;20449;-71
2021/09/18 08:48:58;;;;;;;9.13;7.50;;;;;;;;;;5068182;28;20450;-71
2021/09/18 08:51:27;;;;;;;8.20;7.40;;;;;;;;;;5069122;28;20441;-71
2021/09/18 08:53:55;;;;;;;10.87;8.37;;;;;;;;;;5069043;28;20499;-70
2021/09/18 08:56:23;;;;;;;7.47;6.23;;;;;;;;;;5068259;28;20459;-71
2021/09/18 08:58:50;;;;;;;9.10;6.83;;;;;;;;;;5068019;28;20533;-71
2021/09/18 09:01:19;;;;;;;8.90;8.00;;;;;;;;;;5069148;28;20489;-70
2021/09/18 09:03:56;;;;;;;7.30;6.10;;;;;;;;;;5068097;28;20460;-70
2021/09/18 09:06:23;;;;;;;8.03;7.17;;;;;;;;;;5068171;28;20507;-71
2021/09/18 09:08:58;;;;;;;7.70;7.00;;;;;;;;;;5067624;28;20452;-70
2021/09/18 09:11:27;;;;;;;10.53;7.40;;;;;;;;;;5068759;28;20528;-70
2021/09/18 09:13:59;;;;;;;7.17;6.47;;;;;;;;;;5068386;28;20446;-70
2021/09/18 09:16:27;;;;;;;6.80;6.10;;;;;;;;;;5069200;28;20953;-70
2021/09/18 09:18:54;;;;;;;8.67;5.90;;;;;;;;;;5069523;28;20449;-70
2021/09/18 09:21:22;;;;;;;6.40;5.77;;;;;;;;;;5069268;28;20576;-70
2021/09/18 09:24:04;;;;;;;6.40;5.80;;;;;;;;;;5068338;28;20524;-70
2021/09/18 09:26:33;;;;;;;8.50;5.30;;;;;;;;;;5068377;28;20953;-70
2021/09/18 09:29:00;;;;;;;6.77;6.03;;;;;;;;;;5072516;28;20456;-71
2021/09/18 09:31:29;;;;;;;6.30;5.70;;;;;;;;;;5071950;28;20492;-73
2021/09/18 09:34:06;;;;;;;6.70;6.10;;;;;;;;;;5072634;28;20455;-70
2021/09/18 09:36:37;;;;;;;5.93;4.40;;;;;;;;;;5071535;28;20461;-70
2021/09/18 09:39:06;;;;;;;5.90;5.33;;;;;;;;;;5072075;28;21049;-71
2021/09/18 09:41:36;;;;;;;5.10;4.67;;;;;;;;;;5072099;28;20571;-70
2021/09/18 09:44:04;;;;;;;9.03;4.83;;;;;;;;;;5072058;28;20524;-71
2021/09/18 09:46:31;;;;;;;4.70;4.30;;;;;;;;;;5061319;28;20889;-71
2021/09/18 09:49:16;;;;;;;4.43;4.03;;;;;;;;;;5071543;28;20512;-71
2021/09/18 09:51:44;;;;;;;4.03;3.50;;;;;;;;;;5071709;28;20801;-71
2021/09/18 09:54:22;;;;;;;4.20;3.80;;;;;;;;;;5071701;28;21025;-70
2021/09/18 09:57:05;;;;;;;5.30;3.63;;;;;;;;;;5071555;28;20488;-70
2021/09/18 09:59:33;;;;;;;3.67;3.37;;;;;;;;;;5071405;28;20453;-70
2021/09/18 10:02:00;;;;;;;2.70;2.50;;;;;;;;;;5071480;28;20508;-71
2021/09/18 10:04:27;;;;;;;5.20;2.80;;;;;;;;;;5071629;28;20457;-73
2021/09/18 10:06:55;;;;;;;7.73;2.13;;;;;;;;;;5069728;28;20521;-71
2021/09/18 10:09:22;;;;;;;2.87;1.93;;;;;;;;;;5071096;28;20449;-71
2021/09/18 10:11:51;;;;;;;3.33;1.73;;;;;;;;;;5071289;28;20861;-70
2021/09/18 10:14:21;;;;;;;1.80;1.70;;;;;;;;;;5071820;28;20453;-71
2021/09/18 10:16:49;;;;;;;2.10;1.83;;;;;;;;;;5070987;28;20446;-71
2021/09/18 10:19:17;;;;;;;2.17;1.97;;;;;;;;;;5071299;28;20532;-71
2021/09/18 10:24:34;;;;;;;2.10;1.80;;;;;;;;;;5070797;28;20948;-71
2021/09/18 10:27:20;;;;;;;4.10;2.37;;;;;;;;;;5071705;28;20471;-71
2021/09/18 10:29:48;;;;;;;2.00;1.80;;;;;;;;;;5070606;28;20521;-71
2021/09/18 10:32:16;;;;;;;1.77;1.67;;;;;;;;;;5071138;28;20437;-71
2021/09/18 10:34:44;;;;;;;4.07;1.87;;;;;;;;;;5070043;28;20454;-71
2021/09/18 10:37:26;;;;;;;1.97;1.70;;;;;;;;;;5070813;28;20461;-71
2021/09/18 10:40:01;;;;;;;9.13;2.00;;;;;;;;;;5070894;28;20442;-70
2021/09/18 10:42:34;;;;;;;1.87;1.77;;;;;;;;;;5070680;28;20473;-73
2021/09/18 10:45:01;;;;;;;1.70;1.60;;;;;;;;;;5070887;28;20453;-71
2021/09/18 10:47:35;;;;;;;1.53;1.40;;;;;;;;;;5060210;28;20822;-73
2021/09/18 10:50:02;;;;;;;1.77;1.67;;;;;;;;;;5070387;28;20537;-72
2021/09/18 10:52:33;;;;;;;1.60;1.50;;;;;;;;;;5070113;28;20481;-71
2021/09/18 10:55:10;;;;;;;2.07;1.80;;;;;;;;;;5070832;28;20446;-71
2021/09/18 10:57:52;;;;;;;2.20;1.67;;;;;;;;;;5070449;28;20449;-71
2021/09/18 11:00:34;;;;;;;1.40;1.30;;;;;;;;;;5070408;28;20457;-70
2021/09/18 11:03:03;;;;;;;2.00;1.67;;;;;;;;;;5069098;28;20488;-71
2021/09/18 11:05:47;;;;;;;1.43;1.33;;;;;;;;;;5069901;28;20441;-72
2021/09/18 11:08:35;;;;;;;2.70;1.53;;;;;;;;;;5068803;28;20444;-71
2021/09/18 11:11:04;;;;;;;3.60;1.90;;;;;;;;;;5067627;28;20461;-71
2021/09/18 11:13:34;;;;;;;1.50;1.40;;;;;;;;;;5069550;28;21136;-70
2021/09/18 11:16:04;;;;;;;1.50;1.40;;;;;;;;;;5070474;28;20898;-70
2021/09/18 11:18:35;;;;;;;2.37;2.10;;;;;;;;;;5068898;28;20453;-73
2021/09/18 11:21:06;;;;;;;1.73;1.63;;;;;;;;;;5070407;28;20648;-72
2021/09/18 11:23:34;;;;;;;2.03;1.80;;;;;;;;;;5064262;28;20445;-71
2021/09/18 11:26:02;;;;;;;2.47;2.07;;;;;;;;;;5069781;28;20449;-71
2021/09/18 11:28:34;;;;;;;2.17;1.97;;;;;;;;;;5068722;28;20481;-73
2021/09/18 11:31:01;;;;;;;3.47;2.87;;;;;;;;;;5070184;28;20945;-71
2021/09/18 11:33:29;;;;;;;3.70;3.30;;;;;;;;;;5070169;28;20452;-71
2021/09/18 11:35:58;;;;;;;4.00;3.60;;;;;;;;;;5070605;28;20548;-71
2021/09/18 11:38:26;;;;;;;3.70;3.10;;;;;;;;;;5069471;28;20529;-71
2021/09/18 11:41:03;;;;;;;3.50;3.20;;;;;;;;;;5064238;28;20477;-70
2021/09/18 11:43:30;;;;;;;4.37;3.27;;;;;;;;;;5069378;28;20440;-71
2021/09/18 11:45:58;;;;;;;3.60;3.30;;;;;;;;;;5064959;28;20458;-71
2021/09/18 11:48:25;;;;;;;3.50;3.17;;;;;;;;;;5065081;28;20446;-71
2021/09/18 11:50:53;;;;;;;3.90;3.50;;;;;;;;;;5069740;28;20457;-71
2021/09/18 11:53:21;;;;;;;3.43;3.13;;;;;;;;;;5070368;28;20480;-71
2021/09/18 11:55:49;;;;;;;6.27;3.60;;;;;;;;;;5069429;28;20536;-71
2021/09/18 11:58:17;;;;;;;3.57;3.00;;;;;;;;;;5072885;28;20500;-70
2021/09/18 12:00:45;;;;;;;3.00;2.70;;;;;;;;;;5077217;28;20442;-70
2021/09/18 12:03:13;;;;;;;3.73;3.40;;;;;;;;;;5076173;28;20556;-71
2021/09/18 12:05:40;;;;;;;5.97;3.40;;;;;;;;;;5070581;28;20477;-71
2021/09/18 12:08:09;;;;;;;3.80;3.10;;;;;;;;;;5069110;28;20564;-71
2021/09/18 12:10:38;;;;;;;4.10;3.20;;;;;;;;;;5069239;28;20445;-71
2021/09/18 12:13:09;;;;;;;4.03;2.80;;;;;;;;;;5069172;28;20449;-71
2021/09/18 12:15:37;;;;;;;7.03;3.33;;;;;;;;;;5061554;28;20445;-71
2021/09/18 12:18:07;;;;;;;3.20;2.90;;;;;;;;;;5069079;28;21081;-71
2021/09/18 12:20:34;;;;;;;2.97;2.73;;;;;;;;;;5062272;28;20442;-71
2021/09/18 12:23:02;;;;;;;3.20;2.90;;;;;;;;;;5069482;28;20481;-71
2021/09/18 12:25:29;;;;;;;3.80;3.00;;;;;;;;;;5069102;28;20552;-72
2021/09/18 12:27:59;;;;;;;3.30;3.00;;;;;;;;;;5069087;28;20450;-71
2021/09/18 12:30:27;;;;;;;3.10;2.80;;;;;;;;;;5069911;28;20523;-71
2021/09/18 12:33:03;;;;;;;3.70;2.53;;;;;;;;;;5069136;28;20446;-71
2021/09/18 12:35:37;;;;;;;2.97;2.77;;;;;;;;;;5070173;28;20856;-71
2021/09/18 12:38:05;;;;;;;2.80;2.60;;;;;;;;;;5069046;28;20449;-71
2021/09/18 12:40:36;;;;;;;5.43;2.83;;;;;;;;;;5074272;28;20476;-70
2021/09/18 12:43:09;;;;;;;2.97;2.60;;;;;;;;;;5068972;28;20885;-69
2021/09/18 12:45:36;;;;;;;3.90;2.93;;;;;;;;;;5064868;28;20446;-70
2021/09/18 12:48:17;;;;;;;3.20;2.87;;;;;;;;;;5061907;28;20536;-71
2021/09/18 12:50:48;;;;;;;2.97;2.70;;;;;;;;;;5068808;28;20524;-71
2021/09/18 12:53:22;;;;;;;3.43;2.53;;;;;;;;;;5069114;28;20460;-71
2021/09/18 12:56:09;;;;;;;2.70;2.50;;;;;;;;;;5068874;28;20528;-71
2021/09/18 12:58:37;;;;;;;2.60;2.40;;;;;;;;;;5068554;28;20536;-71
2021/09/18 13:01:05;;;;;;;3.70;3.40;;;;;;;;;;5069758;28;20532;-71
2021/09/18 13:03:33;;;;;;;2.80;2.60;;;;;;;;;;5072308;28;20480;-72
2021/09/18 13:06:01;;;;;;;3.93;3.20;;;;;;;;;;5072858;28;20544;-71
2021/09/18 13:08:41;;;;;;;3.83;2.73;;;;;;;;;;5072133;28;20445;-73
2021/09/18 13:11:12;;;;;;;3.90;3.03;;;;;;;;;;5072059;28;22289;-71
2021/09/18 13:13:41;;;;;;;3.60;2.90;;;;;;;;;;5072517;28;20608;-71
2021/09/18 13:16:08;;;;;;;3.33;2.80;;;;;;;;;;5072507;28;20495;-71
2021/09/18 13:18:35;;;;;;;3.97;3.57;;;;;;;;;;5071773;28;20449;-71
2021/09/18 13:21:02;;;;;;;4.00;3.70;;;;;;;;;;5072925;28;20567;-73
2021/09/18 13:23:29;;;;;;;3.67;3.37;;;;;;;;;;5072446;28;20563;-73
2021/09/18 13:25:56;;;;;;;3.90;3.60;;;;;;;;;;5072363;28;20540;-73
2021/09/18 13:28:26;;;;;;;3.50;3.20;;;;;;;;;;5071371;28;20536;-71
2021/09/18 13:30:54;;;;;;;4.83;3.23;;;;;;;;;;5072257;28;20453;-72
2021/09/18 13:33:21;;;;;;;3.63;3.23;;;;;;;;;;5071742;28;20459;-71
2021/09/18 13:35:49;;;;;;;3.53;3.23;;;;;;;;;;5070772;28;20446;-71
2021/09/18 13:38:16;;;;;;;3.63;3.33;;;;;;;;;;5071659;28;20878;-70
2021/09/18 13:40:43;;;;;;;3.30;3.10;;;;;;;;;;5071446;28;20937;-72
2021/09/18 13:43:10;;;;;;;4.60;2.90;;;;;;;;;;5071941;28;20572;-71
2021/09/18 13:45:37;;;;;;;4.47;3.13;;;;;;;;;;5070876;28;20464;-72
2021/09/18 13:48:06;;;;;;;3.17;2.97;;;;;;;;;;5071906;28;20528;-71
2021/09/18 13:50:33;;;;;;;3.17;2.90;;;;;;;;;;5070429;28;20944;-71
2021/09/18 13:53:00;;;;;;;3.57;3.27;;;;;;;;;;5071583;28;20481;-71
2021/09/18 13:55:27;;;;;;;3.70;3.40;;;;;;;;;;5070653;28;20535;-73
2021/09/18 13:57:54;;;;;;;2.70;2.47;;;;;;;;;;5071676;28;20456;-71
2021/09/18 14:00:22;;;;;;;3.37;2.87;;;;;;;;;;5072432;28;20552;-70
2021/09/18 14:02:49;;;;;;;4.03;3.50;;;;;;;;;;5071114;28;20505;-71
2021/09/18 14:05:17;;;;;;;3.27;2.97;;;;;;;;;;5071560;28;20533;-71
2021/09/18 14:07:45;;;;;;;2.83;2.63;;;;;;;;;;5070265;28;20551;-71
2021/09/18 14:10:12;;;;;;;3.20;2.97;;;;;;;;;;5071541;28;20540;-71
2021/09/18 14:12:39;;;;;;;3.63;3.33;;;;;;;;;;5070213;28;20453;-71
2021/09/18 14:15:07;;;;;;;3.37;3.07;;;;;;;;;;5071805;28;20510;-71
2021/09/18 14:17:34;;;;;;;4.83;3.20;;;;;;;;;;5070394;28;20945;-71
2021/09/18 14:20:01;;;;;;;3.57;2.97;;;;;;;;;;5071936;28;20794;-71
2021/09/18 14:22:30;;;;;;;3.73;3.10;;;;;;;;;;5071008;28;20564;-71
2021/09/18 14:24:57;;;;;;;3.63;3.33;;;;;;;;;;5071539;28;21103;-72
2021/09/18 14:27:24;;;;;;;2.90;2.70;;;;;;;;;;5071112;28;20481;-72
2021/09/18 14:29:51;;;;;;;3.87;3.57;;;;;;;;;;5070851;28;20452;-72
2021/09/18 14:32:18;;;;;;;3.57;3.23;;;;;;;;;;5071912;28;20464;-71
2021/09/18 14:34:45;;;;;;;3.63;3.33;;;;;;;;;;5069908;28;20445;-70
2021/09/18 14:37:13;;;;;;;3.00;2.80;;;;;;;;;;5070247;28;20453;-72
2021/09/18 14:39:42;;;;;;;8.00;4.10;;;;;;;;;;5070268;28;20480;-72
2021/09/18 14:42:10;;;;;;;7.40;3.80;;;;;;;;;;5071186;28;20477;-71
2021/09/18 14:44:37;;;;;;;4.50;3.57;;;;;;;;;;5070540;28;20495;-71
2021/09/18 14:47:04;;;;;;;4.03;3.73;;;;;;;;;;5060362;28;20464;-71
2021/09/18 14:49:31;;;;;;;3.83;3.50;;;;;;;;;;5069248;28;20460;-72